createdAt,value
2023-04-07T00:01:36.886Z,15.52
2023-04-07T00:04:03.511Z,16.50
2023-04-07T00:06:30.247Z,16.23
2023-04-07T00:08:56.651Z,19.35
2023-04-07T00:11:23.000Z,18.90
2023-04-07T00:13:49.320Z,19.23
2023-04-07T00:16:15.696Z,15.63
2023-04-07T00:18:42.137Z,18.98
2023-04-07T00:21:08.519Z,18.10
2023-04-07T00:23:34.970Z,19.63
2023-04-07T00:26:01.561Z,16.77
2023-04-07T00:28:27.861Z,14.90
2023-04-07T00:30:54.210Z,18.85
2023-04-07T00:33:20.716Z,17.77
2023-04-07T00:35:47.025Z,15.80
2023-04-07T00:38:13.415Z,17.58
2023-04-07T00:40:39.800Z,16.20
2023-04-07T00:43:06.333Z,14.70
2023-04-07T00:45:32.941Z,16.70
2023-04-07T00:47:59.554Z,15.93
2023-04-07T00:50:26.509Z,12.90
2023-04-07T00:52:54.492Z,12.48
2023-04-07T00:55:20.998Z,10.40
2023-04-07T00:57:47.309Z,14.20
2023-04-07T01:00:14.174Z,12.98
2023-04-07T01:02:45.558Z,13.18
2023-04-07T01:05:20.790Z,10.02
2023-04-07T01:08:00.811Z,10.00
2023-04-07T01:10:37.446Z,11.27
2023-04-07T01:13:19.396Z,10.60
2023-04-07T01:15:49.149Z,11.25
2023-04-07T01:18:22.078Z,11.38
2023-04-07T01:20:56.125Z,10.55
2023-04-07T01:23:51.783Z,12.15
2023-04-07T01:26:30.560Z,13.02
2023-04-07T01:29:37.643Z,11.73
2023-04-07T01:32:06.381Z,12.23
2023-04-07T01:34:34.022Z,12.98
2023-04-07T01:37:02.396Z,12.85
2023-04-07T01:39:29.136Z,11.85
2023-04-07T01:41:57.487Z,12.10
2023-04-07T01:44:25.970Z,12.40
2023-04-07T01:46:54.162Z,12.05
2023-04-07T01:49:21.272Z,11.07
2023-04-07T01:51:50.303Z,11.40
2023-04-07T01:54:17.836Z,12.93
2023-04-07T01:56:45.090Z,12.15
2023-04-07T01:59:11.559Z,11.25
2023-04-07T02:01:38.092Z,10.88
2023-04-07T02:04:24.796Z,8.98
2023-04-07T02:07:08.974Z,10.55
2023-04-07T02:09:38.792Z,11.20
2023-04-07T02:12:07.781Z,10.57
2023-04-07T02:14:36.723Z,11.25
2023-04-07T02:17:04.002Z,10.80
2023-04-07T02:19:30.444Z,10.30
2023-04-07T02:21:57.271Z,10.85
2023-04-07T02:24:23.582Z,10.27
2023-04-07T02:26:49.914Z,10.32
2023-04-07T02:29:16.385Z,10.10
2023-04-07T02:31:42.836Z,9.82
2023-04-07T02:34:09.308Z,9.85
2023-04-07T02:36:35.832Z,8.98
2023-04-07T02:39:02.492Z,9.73
2023-04-07T02:41:28.890Z,9.05
2023-04-07T02:43:55.412Z,7.60
2023-04-07T02:46:21.941Z,8.00
2023-04-07T02:48:48.281Z,8.57
2023-04-07T02:51:14.577Z,7.63
2023-04-07T02:53:40.872Z,8.43
2023-04-07T02:56:07.254Z,7.72
2023-04-07T02:58:33.580Z,8.25
2023-04-07T03:01:00.048Z,8.10
2023-04-07T03:03:26.852Z,7.88
2023-04-07T03:05:53.378Z,7.80
2023-04-07T03:08:19.755Z,7.07
2023-04-07T03:10:46.095Z,7.70
2023-04-07T03:13:16.157Z,8.15
2023-04-07T03:15:43.271Z,7.90
2023-04-07T03:18:09.736Z,8.07
2023-04-07T03:20:36.337Z,8.45
2023-04-07T03:23:02.783Z,9.00
2023-04-07T03:25:29.159Z,8.93
2023-04-07T03:27:55.474Z,8.13
2023-04-07T03:30:21.791Z,8.70
2023-04-07T03:32:48.217Z,8.63
2023-04-07T03:35:14.673Z,6.78
2023-04-07T03:37:41.062Z,7.72
2023-04-07T03:40:07.964Z,8.23
2023-04-07T03:42:34.265Z,7.85
2023-04-07T03:45:00.652Z,6.88
2023-04-07T03:47:27.149Z,8.02
2023-04-07T03:49:53.537Z,7.50
2023-04-07T03:52:19.846Z,7.80
2023-04-07T03:54:46.225Z,6.80
2023-04-07T03:57:12.567Z,7.57
2023-04-07T03:59:38.920Z,7.60
2023-04-07T04:02:05.372Z,8.50
2023-04-07T04:04:31.753Z,8.02
2023-04-07T04:06:58.116Z,8.02
2023-04-07T04:09:24.510Z,8.95
2023-04-07T04:11:50.978Z,8.93
2023-04-07T04:14:17.388Z,9.00
2023-04-07T04:16:43.720Z,8.38
2023-04-07T04:19:10.167Z,9.15
2023-04-07T04:21:36.479Z,7.95
2023-04-07T04:24:03.791Z,7.38
2023-04-07T04:26:30.540Z,6.28
2023-04-07T04:28:56.876Z,7.10
2023-04-07T04:31:23.233Z,7.43
2023-04-07T04:33:49.592Z,6.75
2023-04-07T04:36:16.345Z,6.95
2023-04-07T04:38:42.658Z,7.57
2023-04-07T04:41:08.993Z,7.75
2023-04-07T04:43:35.398Z,6.65
2023-04-07T04:46:01.762Z,8.68
2023-04-07T04:48:28.190Z,7.57
2023-04-07T04:50:54.547Z,8.15
2023-04-07T04:53:21.043Z,7.70
2023-04-07T04:55:51.844Z,7.13
2023-04-07T04:58:19.121Z,7.97
2023-04-07T05:00:45.498Z,6.95
2023-04-07T05:03:12.338Z,7.28
2023-04-07T05:05:39.034Z,6.95
2023-04-07T05:08:05.860Z,5.45
2023-04-07T05:10:32.174Z,7.50
2023-04-07T05:12:58.486Z,6.65
2023-04-07T05:15:24.793Z,7.38
2023-04-07T05:17:51.267Z,6.97
2023-04-07T05:20:17.623Z,7.65
2023-04-07T05:22:44.008Z,8.23
2023-04-07T05:25:10.769Z,9.40
2023-04-07T05:27:37.212Z,9.90
2023-04-07T05:30:03.848Z,9.20
2023-04-07T05:32:30.411Z,9.23
2023-04-07T05:34:56.799Z,9.63
2023-04-07T05:37:23.114Z,9.32
2023-04-07T05:39:49.556Z,8.70
2023-04-07T05:42:16.031Z,7.95
2023-04-07T05:44:42.386Z,10.00
2023-04-07T05:47:09.123Z,9.15
2023-04-07T05:49:35.824Z,10.25
2023-04-07T05:52:03.448Z,8.98
2023-04-07T05:54:29.892Z,8.38
2023-04-07T05:56:56.271Z,9.45
2023-04-07T05:59:22.846Z,9.20
2023-04-07T06:01:49.451Z,10.57
2023-04-07T06:04:15.856Z,9.70
2023-04-07T06:06:42.186Z,10.02
2023-04-07T06:09:08.542Z,9.75
2023-04-07T06:11:34.862Z,10.45
2023-04-07T06:14:01.195Z,9.32
2023-04-07T06:16:27.833Z,8.82
2023-04-07T06:18:54.153Z,9.07
2023-04-07T06:21:20.779Z,9.23
2023-04-07T06:23:47.657Z,8.50
2023-04-07T06:26:14.392Z,9.38
2023-04-07T06:28:41.026Z,8.43
2023-04-07T06:31:08.800Z,8.07
2023-04-07T06:33:35.257Z,8.68
2023-04-07T06:36:02.038Z,8.45
2023-04-07T06:38:28.431Z,7.22
2023-04-07T06:40:54.790Z,7.65
2023-04-07T06:43:21.206Z,7.63
2023-04-07T06:45:47.655Z,7.75
2023-04-07T06:48:14.037Z,7.18
2023-04-07T06:50:40.557Z,7.18
2023-04-07T06:53:06.898Z,7.53
2023-04-07T06:55:33.239Z,8.20
2023-04-07T06:57:59.589Z,11.40
2023-04-07T07:00:26.981Z,10.38
2023-04-07T07:02:53.474Z,10.93
2023-04-07T07:05:20.130Z,9.82
2023-04-07T07:07:46.435Z,9.23
2023-04-07T07:10:12.763Z,8.07
2023-04-07T07:12:39.180Z,8.48
2023-04-07T07:15:06.343Z,8.35
2023-04-07T07:17:32.959Z,9.52
2023-04-07T07:19:59.284Z,9.15
2023-04-07T07:22:25.906Z,8.20
2023-04-07T07:24:52.302Z,8.45
2023-04-07T07:27:18.604Z,9.65
2023-04-07T07:29:44.929Z,7.75
2023-04-07T07:32:11.245Z,7.38
2023-04-07T07:34:37.566Z,7.50
2023-04-07T07:37:03.898Z,6.45
2023-04-07T07:39:30.443Z,7.45
2023-04-07T07:41:57.239Z,7.10
2023-04-07T07:44:23.708Z,6.55
2023-04-07T07:46:51.228Z,5.85
2023-04-07T07:49:17.727Z,7.80
2023-04-07T07:51:45.913Z,7.70
2023-04-07T07:54:12.290Z,6.90
2023-04-07T07:56:38.582Z,7.28
2023-04-07T07:59:08.261Z,7.35
2023-04-07T08:01:34.754Z,7.75
2023-04-07T08:04:01.555Z,7.72
2023-04-07T08:06:31.334Z,7.15
2023-04-07T08:08:57.950Z,6.88
2023-04-07T08:11:24.663Z,6.85
2023-04-07T08:13:51.242Z,6.28
2023-04-07T08:16:17.843Z,5.72
2023-04-07T08:18:44.187Z,6.90
2023-04-07T08:21:10.857Z,5.50
2023-04-07T08:23:37.232Z,5.32
2023-04-07T08:26:03.685Z,4.90
2023-04-07T08:28:30.371Z,4.60
2023-04-07T08:30:56.686Z,4.40
2023-04-07T08:33:23.098Z,4.22
2023-04-07T08:35:49.551Z,3.88
2023-04-07T08:38:16.111Z,3.45
2023-04-07T08:40:42.805Z,4.43
2023-04-07T08:43:10.540Z,4.15
2023-04-07T08:45:40.582Z,4.07
2023-04-07T08:48:17.723Z,3.88
2023-04-07T08:50:52.589Z,3.97
2023-04-07T08:53:29.401Z,4.07
2023-04-07T08:55:56.468Z,4.60
2023-04-07T08:58:23.276Z,4.07
2023-04-07T09:00:50.636Z,3.70
2023-04-07T09:03:17.975Z,3.90
2023-04-07T09:05:46.057Z,3.40
2023-04-07T09:08:12.804Z,4.38
2023-04-07T09:10:39.143Z,3.17
2023-04-07T09:13:05.590Z,3.08
2023-04-07T09:15:32.131Z,3.08
2023-04-07T09:17:59.277Z,2.40
2023-04-07T09:20:25.819Z,2.58
2023-04-07T09:22:52.242Z,2.45
2023-04-07T09:25:26.102Z,2.22
2023-04-07T09:28:00.480Z,2.83
2023-04-07T09:30:28.959Z,3.60
2023-04-07T09:32:56.033Z,2.63
2023-04-07T09:35:23.819Z,3.92
2023-04-07T09:38:07.753Z,3.85
2023-04-07T09:40:35.259Z,2.58
2023-04-07T09:43:02.866Z,3.53
2023-04-07T09:45:35.347Z,4.00
2023-04-07T09:48:21.656Z,5.03
2023-04-07T09:50:51.786Z,3.83
2023-04-07T09:53:20.052Z,3.58
2023-04-07T09:55:47.059Z,3.40
2023-04-07T09:58:16.916Z,3.20
2023-04-07T10:00:44.156Z,2.00
2023-04-07T10:03:11.064Z,1.98
2023-04-07T10:05:39.152Z,1.88
2023-04-07T10:08:06.455Z,2.80
2023-04-07T10:10:33.205Z,3.25
2023-04-07T10:12:59.721Z,3.00
2023-04-07T10:15:26.519Z,3.72
2023-04-07T10:17:56.575Z,4.10
2023-04-07T10:20:23.680Z,4.18
2023-04-07T10:22:52.770Z,3.30
2023-04-07T10:25:22.447Z,5.07
2023-04-07T10:27:53.624Z,3.47
2023-04-07T10:32:55.049Z,3.13
2023-04-07T10:35:22.650Z,3.08
2023-04-07T10:38:07.466Z,2.40
2023-04-07T10:40:35.415Z,3.25
2023-04-07T10:43:02.037Z,3.85
2023-04-07T10:45:46.913Z,2.88
2023-04-07T10:48:15.133Z,3.67
2023-04-07T10:50:42.474Z,1.95
2023-04-07T10:53:13.136Z,4.00
2023-04-07T10:55:46.653Z,4.40
2023-04-07T10:58:22.597Z,3.60
2023-04-07T11:01:07.452Z,3.42
2023-04-07T11:03:38.951Z,3.60
2023-04-07T11:06:08.386Z,3.70
2023-04-07T11:08:49.495Z,3.80
2023-04-07T11:13:51.249Z,3.80
2023-04-07T11:16:19.679Z,3.97
2023-04-07T11:18:47.648Z,3.05
2023-04-07T11:21:18.582Z,3.22
2023-04-07T11:23:46.854Z,3.83
2023-04-07T11:26:15.891Z,3.90
2023-04-07T11:28:51.298Z,5.40
2023-04-07T11:31:29.198Z,3.80
2023-04-07T11:33:58.728Z,3.33
2023-04-07T11:36:33.395Z,3.28
2023-04-07T11:39:01.391Z,3.50
2023-04-07T11:41:30.452Z,2.40
2023-04-07T11:44:12.708Z,4.05
2023-04-07T11:46:58.382Z,3.70
2023-04-07T11:49:29.926Z,3.83
2023-04-07T11:52:01.741Z,3.70
2023-04-07T11:54:38.623Z,4.20
2023-04-07T11:57:05.199Z,4.43
2023-04-07T11:59:32.720Z,4.18
2023-04-07T12:01:59.183Z,4.05
2023-04-07T12:04:25.889Z,4.00
2023-04-07T12:06:52.798Z,4.07
2023-04-07T12:09:35.824Z,3.53
2023-04-07T12:12:05.677Z,3.20
2023-04-07T12:14:32.498Z,3.13
2023-04-07T12:16:59.568Z,3.58
2023-04-07T12:19:30.105Z,3.65
2023-04-07T12:21:57.036Z,3.22
2023-04-07T12:24:24.206Z,3.55
2023-04-07T12:26:50.621Z,2.70
2023-04-07T12:29:19.847Z,3.63
2023-04-07T12:31:50.136Z,3.33
2023-04-07T12:34:17.067Z,3.00
2023-04-07T12:36:43.626Z,3.15
2023-04-07T12:39:09.952Z,1.90
2023-04-07T12:41:38.435Z,2.15
2023-04-07T12:44:04.739Z,4.22
2023-04-07T12:46:31.134Z,3.28
2023-04-07T12:48:57.513Z,3.55
2023-04-07T12:51:23.880Z,3.38
2023-04-07T12:53:50.494Z,3.08
2023-04-07T12:56:17.116Z,3.60
2023-04-07T12:58:43.426Z,3.28
2023-04-07T13:01:09.973Z,3.25
2023-04-07T13:03:37.198Z,4.05
2023-04-07T13:06:04.421Z,3.65
2023-04-07T13:08:30.978Z,3.80
2023-04-07T13:10:57.508Z,3.50
2023-04-07T13:13:24.267Z,2.90
2023-04-07T13:15:50.812Z,3.45
2023-04-07T13:18:17.322Z,4.00
2023-04-07T13:20:45.380Z,3.80
2023-04-07T13:23:18.715Z,3.75
2023-04-07T13:25:45.206Z,2.97
2023-04-07T13:28:11.667Z,3.63
2023-04-07T13:30:37.988Z,4.03
2023-04-07T13:33:04.413Z,3.63
2023-04-07T13:35:33.623Z,1.95
2023-04-07T13:37:59.946Z,2.38
2023-04-07T13:40:26.237Z,4.07
2023-04-07T13:42:52.554Z,3.67
2023-04-07T13:45:18.981Z,4.18
2023-04-07T13:47:45.961Z,3.63
2023-04-07T13:50:12.384Z,3.53
2023-04-07T13:52:38.770Z,2.72
2023-04-07T13:55:05.963Z,3.72
2023-04-07T13:57:32.354Z,3.95
2023-04-07T13:59:58.821Z,3.60
2023-04-07T14:02:27.955Z,3.70
2023-04-07T14:04:54.459Z,3.33
2023-04-07T14:07:21.618Z,3.05
2023-04-07T14:09:48.157Z,3.63
2023-04-07T14:12:14.871Z,4.25
2023-04-07T14:14:41.528Z,3.22
2023-04-07T14:17:07.846Z,3.28
2023-04-07T14:19:34.945Z,2.90
2023-04-07T14:22:01.376Z,3.40
2023-04-07T14:24:27.686Z,2.88
2023-04-07T14:26:54.626Z,3.40
2023-04-07T14:29:21.457Z,3.22
2023-04-07T14:31:48.567Z,3.50
2023-04-07T14:34:15.383Z,3.13
2023-04-07T14:36:52.305Z,3.20
2023-04-07T14:39:18.695Z,3.72
2023-04-07T14:41:47.669Z,3.15
2023-04-07T14:44:14.664Z,3.92
2023-04-07T14:46:42.479Z,3.38
2023-04-07T14:49:09.246Z,3.38
2023-04-07T14:51:35.728Z,3.65
2023-04-07T14:54:02.236Z,3.85
2023-04-07T14:56:28.538Z,3.70
2023-04-07T14:58:54.838Z,3.95
2023-04-07T15:01:21.248Z,3.70
2023-04-07T15:03:47.781Z,3.70
2023-04-07T15:06:15.345Z,3.47
2023-04-07T15:08:41.742Z,3.47
2023-04-07T15:11:08.975Z,3.42
2023-04-07T15:13:36.095Z,3.15
2023-04-07T15:16:10.389Z,3.75
2023-04-07T15:18:40.777Z,3.13
2023-04-07T15:21:08.690Z,3.83
2023-04-07T15:23:39.017Z,4.03
2023-04-07T15:26:06.065Z,3.03
2023-04-07T15:28:32.463Z,3.92
2023-04-07T15:31:00.460Z,3.95
2023-04-07T15:33:27.286Z,4.32
2023-04-07T15:35:53.768Z,4.00
2023-04-07T15:38:20.304Z,3.35
2023-04-07T15:40:46.609Z,3.22
2023-04-07T15:43:13.021Z,3.17
2023-04-07T15:45:43.753Z,2.90
2023-04-07T15:48:11.368Z,2.60
2023-04-07T15:50:37.717Z,2.38
2023-04-07T15:53:04.654Z,2.00
2023-04-07T15:55:35.536Z,1.88
2023-04-07T15:58:03.023Z,1.92
2023-04-07T16:00:33.309Z,2.20
2023-04-07T16:03:04.644Z,2.67
2023-04-07T16:05:32.184Z,2.60
2023-04-07T16:07:58.556Z,2.92
2023-04-07T16:10:25.106Z,3.05
2023-04-07T16:12:51.578Z,3.38
2023-04-07T16:15:32.495Z,3.65
2023-04-07T16:18:09.567Z,2.72
2023-04-07T16:20:35.994Z,2.80
2023-04-07T16:23:02.382Z,2.88
2023-04-07T16:25:29.705Z,2.58
2023-04-07T16:27:56.216Z,2.78
2023-04-07T16:30:23.886Z,2.70
2023-04-07T16:32:50.836Z,3.05
2023-04-07T16:35:17.346Z,3.08
2023-04-07T16:37:45.882Z,2.97
2023-04-07T16:40:13.264Z,3.22
2023-04-07T16:42:39.622Z,3.42
2023-04-07T16:45:06.739Z,3.95
2023-04-07T16:47:33.177Z,4.47
2023-04-07T16:49:59.691Z,3.83
2023-04-07T16:52:26.774Z,4.32
2023-04-07T16:54:53.282Z,3.70
2023-04-07T16:57:19.602Z,3.92
2023-04-07T16:59:46.335Z,3.90
2023-04-07T17:02:16.156Z,3.67
2023-04-07T17:04:43.783Z,3.93
2023-04-07T17:07:10.898Z,4.10
2023-04-07T17:09:37.335Z,4.55
2023-04-07T17:12:05.682Z,4.90
2023-04-07T17:14:32.315Z,4.63
2023-04-07T17:16:58.640Z,4.45
2023-04-07T17:19:25.045Z,5.45
2023-04-07T17:21:51.458Z,4.82
2023-04-07T17:24:18.005Z,4.95
2023-04-07T17:26:46.509Z,4.65
2023-04-07T17:29:13.913Z,5.15
2023-04-07T17:31:40.547Z,5.43
2023-04-07T17:34:07.021Z,5.32
2023-04-07T17:36:33.762Z,5.57
2023-04-07T17:39:01.238Z,5.22
2023-04-07T17:41:28.359Z,5.60
2023-04-07T17:43:54.805Z,4.50
2023-04-07T17:46:22.852Z,4.38
2023-04-07T17:48:50.702Z,4.65
2023-04-07T17:51:17.296Z,4.47
2023-04-07T17:53:43.930Z,4.32
2023-04-07T17:56:10.250Z,3.88
2023-04-07T17:58:36.597Z,3.97
2023-04-07T18:01:02.993Z,4.45
2023-04-07T18:03:29.880Z,4.30
2023-04-07T18:05:56.386Z,4.47
2023-04-07T18:08:22.847Z,4.28
2023-04-07T18:10:49.152Z,3.95
2023-04-07T18:13:15.453Z,4.45
2023-04-07T18:15:42.335Z,3.58
2023-04-07T18:18:08.783Z,4.40
2023-04-07T18:20:37.864Z,4.32
2023-04-07T18:23:05.367Z,4.57
2023-04-07T18:25:31.684Z,4.57
2023-04-07T18:27:58.721Z,6.35
2023-04-07T18:30:25.063Z,5.95
2023-04-07T18:32:51.601Z,5.15
2023-04-07T18:35:17.997Z,5.57
2023-04-07T18:37:44.478Z,5.05
2023-04-07T18:40:11.460Z,4.78
2023-04-07T18:42:37.864Z,4.35
2023-04-07T18:45:04.535Z,4.70
2023-04-07T18:47:30.950Z,5.40
2023-04-07T18:50:00.261Z,5.85
2023-04-07T18:52:26.655Z,6.05
2023-04-07T18:54:53.072Z,5.80
2023-04-07T18:57:19.390Z,5.45
2023-04-07T18:59:45.805Z,6.13
2023-04-07T19:02:12.278Z,7.05
2023-04-07T19:04:38.839Z,7.97
2023-04-07T19:07:05.240Z,8.65
2023-04-07T19:09:31.822Z,5.38
2023-04-07T19:11:58.179Z,5.35
2023-04-07T19:14:24.580Z,5.75
2023-04-07T19:16:51.933Z,6.28
2023-04-07T19:19:18.618Z,6.47
2023-04-07T19:21:44.947Z,6.32
2023-04-07T19:24:11.266Z,6.25
2023-04-07T19:26:37.824Z,6.00
2023-04-07T19:29:04.325Z,6.18
2023-04-07T19:31:31.609Z,6.43
2023-04-07T19:33:58.485Z,6.68
2023-04-07T19:36:26.324Z,6.60
2023-04-07T19:38:52.774Z,7.15
2023-04-07T19:41:19.100Z,6.93
2023-04-07T19:43:45.424Z,7.20
2023-04-07T19:46:11.920Z,7.82
2023-04-07T19:48:38.302Z,8.10
2023-04-07T19:51:07.108Z,8.02
2023-04-07T19:53:33.808Z,7.00
2023-04-07T19:56:02.044Z,7.63
2023-04-07T19:58:28.396Z,7.80
2023-04-07T20:00:55.023Z,8.80
2023-04-07T20:03:21.948Z,9.30
2023-04-07T20:05:48.498Z,8.95
2023-04-07T20:08:14.874Z,8.70
2023-04-07T20:10:41.327Z,8.95
2023-04-07T20:13:08.996Z,8.63
2023-04-07T20:15:35.347Z,8.55
2023-04-07T20:18:01.715Z,9.18
2023-04-07T20:20:28.085Z,10.20
2023-04-07T20:22:54.518Z,14.13
2023-04-07T20:25:21.020Z,14.25
2023-04-07T20:27:49.871Z,12.70
2023-04-07T20:30:16.413Z,11.93
2023-04-07T20:32:43.684Z,13.00
2023-04-07T20:35:11.896Z,11.43
2023-04-07T20:37:38.473Z,11.98
2023-04-07T20:40:05.999Z,12.63
2023-04-07T20:42:32.368Z,11.88
2023-04-07T20:45:03.400Z,13.00
2023-04-07T20:47:31.048Z,12.50
2023-04-07T20:49:57.816Z,11.35
2023-04-07T20:52:26.241Z,12.77
2023-04-07T20:54:52.707Z,12.85
2023-04-07T20:57:19.070Z,13.10
2023-04-07T20:59:45.397Z,12.13
2023-04-07T21:02:11.973Z,12.80
2023-04-07T21:04:38.460Z,12.73
2023-04-07T21:07:04.828Z,12.48
2023-04-07T21:09:31.184Z,12.02
2023-04-07T21:11:57.533Z,13.13
2023-04-07T21:14:23.919Z,12.38
2023-04-07T21:16:50.281Z,12.25
2023-04-07T21:19:16.595Z,12.93
2023-04-07T21:21:42.916Z,12.15
2023-04-07T21:24:09.257Z,12.13
2023-04-07T21:26:35.947Z,11.57
2023-04-07T21:29:02.275Z,11.00
2023-04-07T21:31:28.672Z,10.93
2023-04-07T21:33:55.181Z,11.40
2023-04-07T21:36:21.532Z,11.48
2023-04-07T21:38:48.194Z,14.77
2023-04-07T21:41:14.740Z,13.90
2023-04-07T21:43:41.169Z,13.52
2023-04-07T21:46:07.586Z,13.02
2023-04-07T21:48:34.748Z,11.52
2023-04-07T21:51:01.218Z,10.68
2023-04-07T21:53:27.705Z,9.48
2023-04-07T21:55:54.064Z,10.90
2023-04-07T21:58:20.512Z,9.93
2023-04-07T22:00:47.543Z,10.32
2023-04-07T22:03:14.945Z,9.40
2023-04-07T22:05:41.370Z,9.63
2023-04-07T22:08:07.809Z,9.65
2023-04-07T22:10:34.129Z,9.23
2023-04-07T22:13:00.531Z,9.63
2023-04-07T22:15:26.955Z,9.18
2023-04-07T22:17:53.407Z,9.75
2023-04-07T22:20:19.816Z,9.82
2023-04-07T22:22:46.400Z,9.45
2023-04-07T22:25:12.760Z,10.23
2023-04-07T22:27:39.142Z,10.40
2023-04-07T22:30:09.695Z,10.20
2023-04-07T22:32:36.934Z,10.90
2023-04-07T22:35:03.423Z,10.75
2023-04-07T22:37:29.818Z,9.75
2023-04-07T22:39:56.221Z,10.30
2023-04-07T22:42:22.549Z,10.48
2023-04-07T22:44:48.917Z,9.15
2023-04-07T22:47:15.774Z,9.77
2023-04-07T22:49:42.356Z,10.18
2023-04-07T22:52:08.687Z,11.93
2023-04-07T22:54:35.373Z,11.40
2023-04-07T22:57:02.301Z,11.57
2023-04-07T22:59:28.621Z,17.38
2023-04-07T23:01:57.129Z,12.50
2023-04-07T23:04:24.685Z,11.73
2023-04-07T23:06:50.977Z,13.32
2023-04-07T23:09:17.315Z,10.57
2023-04-07T23:11:45.847Z,10.05
2023-04-07T23:14:12.174Z,10.70
2023-04-07T23:16:38.540Z,8.60
2023-04-07T23:19:04.875Z,9.40
2023-04-07T23:21:32.092Z,10.52
2023-04-07T23:23:58.594Z,9.05
2023-04-07T23:26:26.540Z,10.38
2023-04-07T23:28:52.876Z,11.13
2023-04-07T23:31:19.223Z,9.73
2023-04-07T23:33:47.488Z,11.05
2023-04-07T23:36:13.862Z,9.10
2023-04-07T23:38:40.714Z,10.35
2023-04-07T23:41:07.694Z,9.02
2023-04-07T23:43:34.440Z,10.38
2023-04-07T23:46:01.476Z,9.52
2023-04-07T23:48:27.882Z,11.77
2023-04-07T23:50:54.256Z,12.63
2023-04-07T23:53:20.561Z,12.48
2023-04-07T23:55:48.292Z,12.75
2023-04-07T23:58:14.610Z,14.80
